sensor_id;sensor_type;location;lat;lon;timestamp;temperature;humidity
3406;DHT22;10008;48.682;9.016;2024-03-17T00:01:03;6.70;99.90
3406;DHT22;10008;48.682;9.016;2024-03-17T00:03:30;6.60;99.90
3406;DHT22;10008;48.682;9.016;2024-03-17T00:06:00;6.70;99.90
3406;DHT22;10008;48.682;9.016;2024-03-17T00:08:26;6.60;99.90
3406;DHT22;10008;48.682;9.016;2024-03-17T00:10:53;6.50;99.90
3406;DHT22;10008;48.682;9.016;2024-03-17T00:13:20;6.50;99.90
3406;DHT22;10008;48.682;9.016;2024-03-17T00:15:48;6.60;99.90
3406;DHT22;10008;48.682;9.016;2024-03-17T00:18:14;6.50;99.90
3406;DHT22;10008;48.682;9.016;2024-03-17T00:20:40;6.50;99.90
3406;DHT22;10008;48.682;9.016;2024-03-17T00:23:06;6.50;99.90
3406;DHT22;10008;48.682;9.016;2024-03-17T00:25:33;6.60;99.90
3406;DHT22;10008;48.682;9.016;2024-03-17T00:28:00;6.60;99.90
3406;DHT22;10008;48.682;9.016;2024-03-17T00:30:26;6.70;99.90
3406;DHT22;10008;48.682;9.016;2024-03-17T00:32:52;6.90;99.90
3406;DHT22;10008;48.682;9.016;2024-03-17T00:35:18;6.90;99.90
3406;DHT22;10008;48.682;9.016;2024-03-17T00:37:47;6.90;99.90
3406;DHT22;10008;48.682;9.016;2024-03-17T00:40:13;6.90;99.90
3406;DHT22;10008;48.682;9.016;2024-03-17T00:42:39;6.90;99.90
3406;DHT22;10008;48.682;9.016;2024-03-17T00:45:06;6.90;99.90
3406;DHT22;10008;48.682;9.016;2024-03-17T00:47:32;6.70;99.90
3406;DHT22;10008;48.682;9.016;2024-03-17T00:49:58;6.70;99.90
3406;DHT22;10008;48.682;9.016;2024-03-17T00:52:24;6.60;99.90
3406;DHT22;10008;48.682;9.016;2024-03-17T00:54:50;6.50;99.90
3406;DHT22;10008;48.682;9.016;2024-03-17T00:57:15;6.60;99.90
3406;DHT22;10008;48.682;9.016;2024-03-17T00:59:45;6.60;99.90
3406;DHT22;10008;48.682;9.016;2024-03-17T01:02:15;6.60;99.90
3406;DHT22;10008;48.682;9.016;2024-03-17T01:04:44;6.30;99.90
3406;DHT22;10008;48.682;9.016;2024-03-17T01:07:11;6.30;99.90
3406;DHT22;10008;48.682;9.016;2024-03-17T01:09:37;6.40;99.90
3406;DHT22;10008;48.682;9.016;2024-03-17T01:12:03;6.30;99.90
3406;DHT22;10008;48.682;9.016;2024-03-17T01:14:29;6.30;99.90
3406;DHT22;10008;48.682;9.016;2024-03-17T01:16:56;6.20;99.90
3406;DHT22;10008;48.682;9.016;2024-03-17T01:19:22;6.10;99.90
3406;DHT22;10008;48.682;9.016;2024-03-17T01:21:48;6.20;99.90
3406;DHT22;10008;48.682;9.016;2024-03-17T01:24:14;6.30;99.90
3406;DHT22;10008;48.682;9.016;2024-03-17T01:26:39;6.40;99.90
3406;DHT22;10008;48.682;9.016;2024-03-17T01:29:05;6.50;99.90
3406;DHT22;10008;48.682;9.016;2024-03-17T01:31:31;6.50;99.90
3406;DHT22;10008;48.682;9.016;2024-03-17T01:33:57;6.40;99.90
3406;DHT22;10008;48.682;9.016;2024-03-17T01:36:22;6.40;99.90
3406;DHT22;10008;48.682;9.016;2024-03-17T01:38:49;6.50;99.90
3406;DHT22;10008;48.682;9.016;2024-03-17T01:41:15;6.60;99.90
3406;DHT22;10008;48.682;9.016;2024-03-17T01:43:41;6.70;99.90
3406;DHT22;10008;48.682;9.016;2024-03-17T01:46:12;6.70;99.90
3406;DHT22;10008;48.682;9.016;2024-03-17T01:48:39;6.70;99.90
3406;DHT22;10008;48.682;9.016;2024-03-17T01:51:05;6.80;99.90
3406;DHT22;10008;48.682;9.016;2024-03-17T01:53:32;6.70;99.90
3406;DHT22;10008;48.682;9.016;2024-03-17T01:55:59;6.60;99.90
3406;DHT22;10008;48.682;9.016;2024-03-17T01:58:25;6.70;99.90
3406;DHT22;10008;48.682;9.016;2024-03-17T02:00:52;6.80;99.90
3406;DHT22;10008;48.682;9.016;2024-03-17T02:03:18;6.70;99.90
3406;DHT22;10008;48.682;9.016;2024-03-17T02:05:44;6.70;99.90
3406;DHT22;10008;48.682;9.016;2024-03-17T02:08:10;6.80;99.90
3406;DHT22;10008;48.682;9.016;2024-03-17T02:10:39;7.00;99.90
3406;DHT22;10008;48.682;9.016;2024-03-17T02:13:05;7.10;99.90
3406;DHT22;10008;48.682;9.016;2024-03-17T02:15:32;7.10;99.90
3406;DHT22;10008;48.682;9.016;2024-03-17T02:17:58;7.20;99.90
3406;DHT22;10008;48.682;9.016;2024-03-17T02:20:24;7.30;99.90
3406;DHT22;10008;48.682;9.016;2024-03-17T02:23:08;7.30;99.90
3406;DHT22;10008;48.682;9.016;2024-03-17T02:25:34;7.40;99.90
3406;DHT22;10008;48.682;9.016;2024-03-17T02:28:01;7.40;99.90
3406;DHT22;10008;48.682;9.016;2024-03-17T02:30:26;7.40;99.90
3406;DHT22;10008;48.682;9.016;2024-03-17T02:32:53;7.40;99.90
3406;DHT22;10008;48.682;9.016;2024-03-17T02:35:19;7.30;99.90
3406;DHT22;10008;48.682;9.016;2024-03-17T02:37:44;7.10;99.90
3406;DHT22;10008;48.682;9.016;2024-03-17T02:40:10;7.10;99.90
3406;DHT22;10008;48.682;9.016;2024-03-17T02:42:36;7.00;99.90
3406;DHT22;10008;48.682;9.016;2024-03-17T02:45:04;7.10;99.90
3406;DHT22;10008;48.682;9.016;2024-03-17T02:47:32;7.20;99.90
3406;DHT22;10008;48.682;9.016;2024-03-17T02:49:57;7.30;99.90
3406;DHT22;10008;48.682;9.016;2024-03-17T02:52:23;7.30;99.90
3406;DHT22;10008;48.682;9.016;2024-03-17T02:54:49;7.30;99.90
3406;DHT22;10008;48.682;9.016;2024-03-17T02:57:15;7.20;99.90
3406;DHT22;10008;48.682;9.016;2024-03-17T02:59:41;7.10;99.90
3406;DHT22;10008;48.682;9.016;2024-03-17T03:02:07;7.20;99.90
3406;DHT22;10008;48.682;9.016;2024-03-17T03:04:33;7.00;99.90
3406;DHT22;10008;48.682;9.016;2024-03-17T03:06:59;6.90;99.90
3406;DHT22;10008;48.682;9.016;2024-03-17T03:09:24;7.00;99.90
3406;DHT22;10008;48.682;9.016;2024-03-17T03:12:08;7.10;99.90
3406;DHT22;10008;48.682;9.016;2024-03-17T03:14:34;7.20;99.90
3406;DHT22;10008;48.682;9.016;2024-03-17T03:17:00;7.20;99.90
3406;DHT22;10008;48.682;9.016;2024-03-17T03:19:29;7.20;99.90
3406;DHT22;10008;48.682;9.016;2024-03-17T03:21:56;7.10;99.90
3406;DHT22;10008;48.682;9.016;2024-03-17T03:24:21;6.90;99.90
3406;DHT22;10008;48.682;9.016;2024-03-17T03:26:47;6.80;99.90
3406;DHT22;10008;48.682;9.016;2024-03-17T03:29:14;6.80;99.90
3406;DHT22;10008;48.682;9.016;2024-03-17T03:31:40;6.90;99.90
3406;DHT22;10008;48.682;9.016;2024-03-17T03:34:06;7.10;99.90
3406;DHT22;10008;48.682;9.016;2024-03-17T03:36:37;7.10;99.90
3406;DHT22;10008;48.682;9.016;2024-03-17T03:39:03;7.30;99.90
3406;DHT22;10008;48.682;9.016;2024-03-17T03:41:30;7.20;99.90
3406;DHT22;10008;48.682;9.016;2024-03-17T03:43:57;7.20;99.90
3406;DHT22;10008;48.682;9.016;2024-03-17T03:46:23;7.20;99.90
3406;DHT22;10008;48.682;9.016;2024-03-17T03:48:48;7.20;99.90
3406;DHT22;10008;48.682;9.016;2024-03-17T03:51:14;7.20;99.90
3406;DHT22;10008;48.682;9.016;2024-03-17T03:53:40;7.30;99.90
3406;DHT22;10008;48.682;9.016;2024-03-17T03:56:07;7.20;99.90
3406;DHT22;10008;48.682;9.016;2024-03-17T03:58:34;7.20;99.90
3406;DHT22;10008;48.682;9.016;2024-03-17T04:01:06;7.20;99.90
3406;DHT22;10008;48.682;9.016;2024-03-17T04:03:36;7.20;99.90
3406;DHT22;10008;48.682;9.016;2024-03-17T04:06:10;7.00;99.90
3406;DHT22;10008;48.682;9.016;2024-03-17T04:08:37;6.90;99.90
3406;DHT22;10008;48.682;9.016;2024-03-17T04:11:03;6.80;99.90
3406;DHT22;10008;48.682;9.016;2024-03-17T04:13:30;6.80;99.90
3406;DHT22;10008;48.682;9.016;2024-03-17T04:16:00;6.80;99.90
3406;DHT22;10008;48.682;9.016;2024-03-17T04:18:26;6.80;99.90
3406;DHT22;10008;48.682;9.016;2024-03-17T04:20:56;6.70;99.90
3406;DHT22;10008;48.682;9.016;2024-03-17T04:23:23;6.90;99.90
3406;DHT22;10008;48.682;9.016;2024-03-17T04:25:52;6.90;99.90
3406;DHT22;10008;48.682;9.016;2024-03-17T04:28:18;6.80;99.90
3406;DHT22;10008;48.682;9.016;2024-03-17T04:30:44;6.70;99.90
3406;DHT22;10008;48.682;9.016;2024-03-17T04:33:11;6.70;99.90
3406;DHT22;10008;48.682;9.016;2024-03-17T04:35:38;6.80;99.90
3406;DHT22;10008;48.682;9.016;2024-03-17T04:38:05;6.70;99.90
3406;DHT22;10008;48.682;9.016;2024-03-17T04:40:32;6.60;99.90
3406;DHT22;10008;48.682;9.016;2024-03-17T04:42:58;6.50;99.90
3406;DHT22;10008;48.682;9.016;2024-03-17T04:45:23;6.70;99.90
3406;DHT22;10008;48.682;9.016;2024-03-17T04:47:49;6.80;99.90
3406;DHT22;10008;48.682;9.016;2024-03-17T04:50:15;6.70;99.90
3406;DHT22;10008;48.682;9.016;2024-03-17T04:52:41;6.60;99.90
3406;DHT22;10008;48.682;9.016;2024-03-17T04:55:07;6.50;99.90
3406;DHT22;10008;48.682;9.016;2024-03-17T04:57:32;6.50;99.90
3406;DHT22;10008;48.682;9.016;2024-03-17T04:59:58;6.70;99.90
3406;DHT22;10008;48.682;9.016;2024-03-17T05:02:24;6.80;99.90
3406;DHT22;10008;48.682;9.016;2024-03-17T05:04:50;6.90;99.90
3406;DHT22;10008;48.682;9.016;2024-03-17T05:07:16;6.80;99.90
3406;DHT22;10008;48.682;9.016;2024-03-17T05:09:42;6.70;99.90
3406;DHT22;10008;48.682;9.016;2024-03-17T05:12:09;6.70;99.90
3406;DHT22;10008;48.682;9.016;2024-03-17T05:14:35;6.60;99.90
3406;DHT22;10008;48.682;9.016;2024-03-17T05:17:01;6.60;99.90
3406;DHT22;10008;48.682;9.016;2024-03-17T05:19:27;6.70;99.90
3406;DHT22;10008;48.682;9.016;2024-03-17T05:21:53;6.80;99.90
3406;DHT22;10008;48.682;9.016;2024-03-17T05:24:18;6.80;99.90
3406;DHT22;10008;48.682;9.016;2024-03-17T05:26:45;6.90;99.90
3406;DHT22;10008;48.682;9.016;2024-03-17T05:29:11;6.90;99.90
3406;DHT22;10008;48.682;9.016;2024-03-17T05:31:37;6.90;99.90
3406;DHT22;10008;48.682;9.016;2024-03-17T05:34:06;6.70;99.90
3406;DHT22;10008;48.682;9.016;2024-03-17T05:36:32;6.60;99.90
3406;DHT22;10008;48.682;9.016;2024-03-17T05:38:59;6.50;99.90
3406;DHT22;10008;48.682;9.016;2024-03-17T05:41:25;6.50;99.90
3406;DHT22;10008;48.682;9.016;2024-03-17T05:43:51;6.40;99.90
3406;DHT22;10008;48.682;9.016;2024-03-17T05:46:17;6.40;99.90
3406;DHT22;10008;48.682;9.016;2024-03-17T05:48:43;6.30;99.90
3406;DHT22;10008;48.682;9.016;2024-03-17T05:51:10;6.40;99.90
3406;DHT22;10008;48.682;9.016;2024-03-17T05:53:37;6.60;99.90
3406;DHT22;10008;48.682;9.016;2024-03-17T05:56:06;6.60;99.90
3406;DHT22;10008;48.682;9.016;2024-03-17T05:58:33;6.50;99.90
3406;DHT22;10008;48.682;9.016;2024-03-17T06:01:02;6.50;99.90
3406;DHT22;10008;48.682;9.016;2024-03-17T06:03:28;6.40;99.90
3406;DHT22;10008;48.682;9.016;2024-03-17T06:05:54;6.40;99.90
3406;DHT22;10008;48.682;9.016;2024-03-17T06:08:19;6.40;99.90
3406;DHT22;10008;48.682;9.016;2024-03-17T06:10:48;6.50;99.90
3406;DHT22;10008;48.682;9.016;2024-03-17T06:13:15;6.60;99.90
3406;DHT22;10008;48.682;9.016;2024-03-17T06:15:46;6.60;99.90
3406;DHT22;10008;48.682;9.016;2024-03-17T06:18:13;6.60;99.90
3406;DHT22;10008;48.682;9.016;2024-03-17T06:20:43;6.70;99.90
3406;DHT22;10008;48.682;9.016;2024-03-17T06:23:14;6.70;99.90
3406;DHT22;10008;48.682;9.016;2024-03-17T06:25:41;6.80;99.90
3406;DHT22;10008;48.682;9.016;2024-03-17T06:28:08;7.00;99.90
3406;DHT22;10008;48.682;9.016;2024-03-17T06:30:35;7.30;99.90
3406;DHT22;10008;48.682;9.016;2024-03-17T06:33:02;7.50;99.90
3406;DHT22;10008;48.682;9.016;2024-03-17T06:35:27;7.70;99.90
3406;DHT22;10008;48.682;9.016;2024-03-17T06:37:59;7.80;99.90
3406;DHT22;10008;48.682;9.016;2024-03-17T06:40:26;8.00;99.90
3406;DHT22;10008;48.682;9.016;2024-03-17T06:42:51;8.10;99.90
3406;DHT22;10008;48.682;9.016;2024-03-17T06:45:19;8.60;99.90
3406;DHT22;10008;48.682;9.016;2024-03-17T06:47:47;9.20;99.90
3406;DHT22;10008;48.682;9.016;2024-03-17T06:50:13;10.00;99.90
3406;DHT22;10008;48.682;9.016;2024-03-17T06:52:40;10.40;99.90
3406;DHT22;10008;48.682;9.016;2024-03-17T06:55:06;10.40;99.90
3406;DHT22;10008;48.682;9.016;2024-03-17T06:57:35;10.10;99.90
3406;DHT22;10008;48.682;9.016;2024-03-17T07:00:04;10.40;99.90
3406;DHT22;10008;48.682;9.016;2024-03-17T07:02:32;10.90;99.90
3406;DHT22;10008;48.682;9.016;2024-03-17T07:04:58;11.00;99.90
3406;DHT22;10008;48.682;9.016;2024-03-17T07:07:26;10.70;99.90
3406;DHT22;10008;48.682;9.016;2024-03-17T07:09:52;10.70;99.90
3406;DHT22;10008;48.682;9.016;2024-03-17T07:12:18;11.10;99.90
3406;DHT22;10008;48.682;9.016;2024-03-17T07:14:44;11.40;99.90
3406;DHT22;10008;48.682;9.016;2024-03-17T07:17:10;11.40;99.90
3406;DHT22;10008;48.682;9.016;2024-03-17T07:19:36;11.20;99.90
3406;DHT22;10008;48.682;9.016;2024-03-17T07:22:02;11.20;99.90
3406;DHT22;10008;48.682;9.016;2024-03-17T07:24:29;11.10;99.90
3406;DHT22;10008;48.682;9.016;2024-03-17T07:26:55;11.40;99.90
3406;DHT22;10008;48.682;9.016;2024-03-17T07:29:21;11.70;99.90
3406;DHT22;10008;48.682;9.016;2024-03-17T07:31:47;11.80;99.90
3406;DHT22;10008;48.682;9.016;2024-03-17T07:34:13;11.90;99.90
3406;DHT22;10008;48.682;9.016;2024-03-17T07:36:38;11.80;99.90
3406;DHT22;10008;48.682;9.016;2024-03-17T07:39:05;12.10;99.90
3406;DHT22;10008;48.682;9.016;2024-03-17T07:41:32;12.80;99.90
3406;DHT22;10008;48.682;9.016;2024-03-17T07:43:58;13.40;99.90
3406;DHT22;10008;48.682;9.016;2024-03-17T07:46:24;13.30;99.90
3406;DHT22;10008;48.682;9.016;2024-03-17T07:48:50;13.10;99.90
3406;DHT22;10008;48.682;9.016;2024-03-17T07:51:16;12.70;99.90
3406;DHT22;10008;48.682;9.016;2024-03-17T07:53:44;12.60;99.90
3406;DHT22;10008;48.682;9.016;2024-03-17T07:56:12;12.80;99.90
3406;DHT22;10008;48.682;9.016;2024-03-17T07:58:39;12.70;99.90
3406;DHT22;10008;48.682;9.016;2024-03-17T08:01:07;12.70;99.90
3406;DHT22;10008;48.682;9.016;2024-03-17T08:03:35;12.30;99.90
3406;DHT22;10008;48.682;9.016;2024-03-17T08:06:02;12.20;99.90
3406;DHT22;10008;48.682;9.016;2024-03-17T08:08:29;11.90;99.90
3406;DHT22;10008;48.682;9.016;2024-03-17T08:10:55;11.70;99.90
3406;DHT22;10008;48.682;9.016;2024-03-17T08:13:24;11.80;99.90
3406;DHT22;10008;48.682;9.016;2024-03-17T08:15:57;12.00;99.90
3406;DHT22;10008;48.682;9.016;2024-03-17T08:18:23;11.60;99.90
3406;DHT22;10008;48.682;9.016;2024-03-17T08:20:49;11.70;99.90
3406;DHT22;10008;48.682;9.016;2024-03-17T08:23:15;11.90;99.90
3406;DHT22;10008;48.682;9.016;2024-03-17T08:25:41;12.10;99.90
3406;DHT22;10008;48.682;9.016;2024-03-17T08:28:06;12.30;99.90
3406;DHT22;10008;48.682;9.016;2024-03-17T08:30:33;12.40;99.90
3406;DHT22;10008;48.682;9.016;2024-03-17T08:32:59;12.30;99.90
3406;DHT22;10008;48.682;9.016;2024-03-17T08:35:25;12.40;99.90
3406;DHT22;10008;48.682;9.016;2024-03-17T08:37:51;12.80;99.90
3406;DHT22;10008;48.682;9.016;2024-03-17T08:40:20;12.90;99.90
3406;DHT22;10008;48.682;9.016;2024-03-17T08:42:46;13.20;99.90
3406;DHT22;10008;48.682;9.016;2024-03-17T08:45:12;13.40;99.90
3406;DHT22;10008;48.682;9.016;2024-03-17T08:47:38;13.80;99.90
3406;DHT22;10008;48.682;9.016;2024-03-17T08:50:04;13.70;99.90
3406;DHT22;10008;48.682;9.016;2024-03-17T08:52:30;14.10;99.90
3406;DHT22;10008;48.682;9.016;2024-03-17T08:54:59;15.00;99.90
3406;DHT22;10008;48.682;9.016;2024-03-17T08:57:25;15.70;99.90
3406;DHT22;10008;48.682;9.016;2024-03-17T08:59:51;15.70;99.90
3406;DHT22;10008;48.682;9.016;2024-03-17T09:02:20;15.50;98.30
3406;DHT22;10008;48.682;9.016;2024-03-17T09:04:47;15.40;97.50
3406;DHT22;10008;48.682;9.016;2024-03-17T09:07:13;15.20;98.80
3406;DHT22;10008;48.682;9.016;2024-03-17T09:09:42;15.40;98.50
3406;DHT22;10008;48.682;9.016;2024-03-17T09:12:08;15.10;97.40
3406;DHT22;10008;48.682;9.016;2024-03-17T09:14:34;14.90;94.40
3406;DHT22;10008;48.682;9.016;2024-03-17T09:17:00;14.90;94.40
3406;DHT22;10008;48.682;9.016;2024-03-17T09:19:26;14.80;93.10
3406;DHT22;10008;48.682;9.016;2024-03-17T09:21:55;14.60;91.30
3406;DHT22;10008;48.682;9.016;2024-03-17T09:24:20;14.60;91.10
3406;DHT22;10008;48.682;9.016;2024-03-17T09:26:46;14.80;91.10
3406;DHT22;10008;48.682;9.016;2024-03-17T09:29:13;15.20;92.70
3406;DHT22;10008;48.682;9.016;2024-03-17T09:31:41;15.30;93.40
3406;DHT22;10008;48.682;9.016;2024-03-17T09:34:08;15.30;94.30
3406;DHT22;10008;48.682;9.016;2024-03-17T09:36:34;15.20;92.70
3406;DHT22;10008;48.682;9.016;2024-03-17T09:39:01;15.20;93.00
3406;DHT22;10008;48.682;9.016;2024-03-17T09:41:30;14.80;92.20
3406;DHT22;10008;48.682;9.016;2024-03-17T09:43:57;14.60;92.90
3406;DHT22;10008;48.682;9.016;2024-03-17T09:46:25;14.50;92.30
3406;DHT22;10008;48.682;9.016;2024-03-17T09:48:54;14.50;94.50
3406;DHT22;10008;48.682;9.016;2024-03-17T09:51:22;14.30;92.70
3406;DHT22;10008;48.682;9.016;2024-03-17T09:53:49;14.00;93.60
3406;DHT22;10008;48.682;9.016;2024-03-17T09:56:16;14.10;93.10
3406;DHT22;10008;48.682;9.016;2024-03-17T09:58:45;14.10;92.70
3406;DHT22;10008;48.682;9.016;2024-03-17T10:01:10;14.00;93.90
3406;DHT22;10008;48.682;9.016;2024-03-17T10:03:50;14.20;93.20
3406;DHT22;10008;48.682;9.016;2024-03-17T10:06:30;14.70;92.50
3406;DHT22;10008;48.682;9.016;2024-03-17T10:08:57;15.30;91.90
3406;DHT22;10008;48.682;9.016;2024-03-17T10:11:25;15.60;91.60
3406;DHT22;10008;48.682;9.016;2024-03-17T10:14:07;16.30;90.80
3406;DHT22;10008;48.682;9.016;2024-03-17T10:16:35;17.00;88.30
3406;DHT22;10008;48.682;9.016;2024-03-17T10:19:14;17.80;86.60
3406;DHT22;10008;48.682;9.016;2024-03-17T10:21:44;17.80;83.40
3406;DHT22;10008;48.682;9.016;2024-03-17T10:24:22;16.90;84.10
3406;DHT22;10008;48.682;9.016;2024-03-17T10:26:51;17.30;83.40
3406;DHT22;10008;48.682;9.016;2024-03-17T10:29:33;17.30;84.40
3406;DHT22;10008;48.682;9.016;2024-03-17T10:32:14;17.20;84.50
3406;DHT22;10008;48.682;9.016;2024-03-17T10:34:42;17.00;84.70
3406;DHT22;10008;48.682;9.016;2024-03-17T10:37:08;17.10;88.20
3406;DHT22;10008;48.682;9.016;2024-03-17T10:39:38;16.90;88.90
3406;DHT22;10008;48.682;9.016;2024-03-17T10:42:06;16.80;89.70
3406;DHT22;10008;48.682;9.016;2024-03-17T10:44:34;16.70;91.60
3406;DHT22;10008;48.682;9.016;2024-03-17T10:47:02;16.30;89.20
3406;DHT22;10008;48.682;9.016;2024-03-17T10:49:32;16.00;90.70
3406;DHT22;10008;48.682;9.016;2024-03-17T10:52:03;16.00;92.80
3406;DHT22;10008;48.682;9.016;2024-03-17T10:54:30;15.60;93.80
3406;DHT22;10008;48.682;9.016;2024-03-17T10:57:13;15.00;92.00
3406;DHT22;10008;48.682;9.016;2024-03-17T10:59:47;15.00;91.60
3406;DHT22;10008;48.682;9.016;2024-03-17T11:02:25;14.20;92.30
3406;DHT22;10008;48.682;9.016;2024-03-17T11:04:56;14.60;93.80
3406;DHT22;10008;48.682;9.016;2024-03-17T11:07:23;15.10;94.10
3406;DHT22;10008;48.682;9.016;2024-03-17T11:09:51;15.20;94.90
3406;DHT22;10008;48.682;9.016;2024-03-17T11:17:50;15.70;90.70
3406;DHT22;10008;48.682;9.016;2024-03-17T11:20:28;15.90;91.90
3406;DHT22;10008;48.682;9.016;2024-03-17T11:22:59;15.30;90.00
3406;DHT22;10008;48.682;9.016;2024-03-17T11:27:57;15.60;91.30
3406;DHT22;10008;48.682;9.016;2024-03-17T11:41:38;16.20;90.60
3406;DHT22;10008;48.682;9.016;2024-03-17T11:47:03;15.90;91.30
3406;DHT22;10008;48.682;9.016;2024-03-17T11:52:14;16.20;91.80
3406;DHT22;10008;48.682;9.016;2024-03-17T11:54:43;16.30;93.60
3406;DHT22;10008;48.682;9.016;2024-03-17T11:57:14;16.10;91.40
3406;DHT22;10008;48.682;9.016;2024-03-17T11:59:46;15.60;91.20
3406;DHT22;10008;48.682;9.016;2024-03-17T12:02:20;15.00;91.60
3406;DHT22;10008;48.682;9.016;2024-03-17T12:04:46;15.10;92.80
3406;DHT22;10008;48.682;9.016;2024-03-17T12:07:18;15.10;91.20
3406;DHT22;10008;48.682;9.016;2024-03-17T12:09:45;15.40;91.70
3406;DHT22;10008;48.682;9.016;2024-03-17T12:12:19;15.30;93.50
3406;DHT22;10008;48.682;9.016;2024-03-17T12:14:45;15.20;93.70
3406;DHT22;10008;48.682;9.016;2024-03-17T12:17:12;15.40;93.00
3406;DHT22;10008;48.682;9.016;2024-03-17T12:19:40;15.00;93.30
3406;DHT22;10008;48.682;9.016;2024-03-17T12:22:06;14.80;92.40
3406;DHT22;10008;48.682;9.016;2024-03-17T12:24:33;15.10;94.00
3406;DHT22;10008;48.682;9.016;2024-03-17T12:27:00;15.30;92.10
3406;DHT22;10008;48.682;9.016;2024-03-17T12:32:18;14.30;92.70
3406;DHT22;10008;48.682;9.016;2024-03-17T12:34:46;14.70;96.10
3406;DHT22;10008;48.682;9.016;2024-03-17T12:37:17;15.00;95.40
3406;DHT22;10008;48.682;9.016;2024-03-17T12:39:44;15.20;94.50
3406;DHT22;10008;48.682;9.016;2024-03-17T12:42:14;15.10;94.70
3406;DHT22;10008;48.682;9.016;2024-03-17T12:44:56;15.00;95.00
3406;DHT22;10008;48.682;9.016;2024-03-17T12:47:23;14.80;95.80
3406;DHT22;10008;48.682;9.016;2024-03-17T12:49:51;14.80;94.40
3406;DHT22;10008;48.682;9.016;2024-03-17T12:52:21;14.80;96.60
3406;DHT22;10008;48.682;9.016;2024-03-17T12:57:42;14.80;96.90
3406;DHT22;10008;48.682;9.016;2024-03-17T13:00:27;14.90;96.10
3406;DHT22;10008;48.682;9.016;2024-03-17T13:03:04;15.00;95.60
3406;DHT22;10008;48.682;9.016;2024-03-17T13:05:37;15.30;96.00
3406;DHT22;10008;48.682;9.016;2024-03-17T13:08:03;15.50;95.70
3406;DHT22;10008;48.682;9.016;2024-03-17T13:10:30;15.70;95.10
3406;DHT22;10008;48.682;9.016;2024-03-17T13:13:00;15.60;94.60
3406;DHT22;10008;48.682;9.016;2024-03-17T13:15:27;15.70;94.30
3406;DHT22;10008;48.682;9.016;2024-03-17T13:17:54;15.60;95.00
3406;DHT22;10008;48.682;9.016;2024-03-17T13:20:20;15.30;93.30
3406;DHT22;10008;48.682;9.016;2024-03-17T13:22:46;15.10;93.00
3406;DHT22;10008;48.682;9.016;2024-03-17T13:25:15;15.00;93.50
3406;DHT22;10008;48.682;9.016;2024-03-17T13:27:43;15.10;93.40
3406;DHT22;10008;48.682;9.016;2024-03-17T13:30:09;15.30;93.40
3406;DHT22;10008;48.682;9.016;2024-03-17T13:32:38;15.60;93.70
3406;DHT22;10008;48.682;9.016;2024-03-17T13:35:05;16.00;92.70
3406;DHT22;10008;48.682;9.016;2024-03-17T13:37:31;16.20;92.20
3406;DHT22;10008;48.682;9.016;2024-03-17T13:39:57;16.00;92.40
3406;DHT22;10008;48.682;9.016;2024-03-17T13:42:23;15.70;91.70
3406;DHT22;10008;48.682;9.016;2024-03-17T13:44:49;15.50;91.90
3406;DHT22;10008;48.682;9.016;2024-03-17T13:47:15;15.90;94.10
3406;DHT22;10008;48.682;9.016;2024-03-17T13:49:40;16.20;90.60
3406;DHT22;10008;48.682;9.016;2024-03-17T13:52:06;16.40;89.90
3406;DHT22;10008;48.682;9.016;2024-03-17T13:54:32;16.90;93.30
3406;DHT22;10008;48.682;9.016;2024-03-17T13:56:59;17.30;91.10
3406;DHT22;10008;48.682;9.016;2024-03-17T13:59:27;17.20;89.30
3406;DHT22;10008;48.682;9.016;2024-03-17T14:01:53;17.60;87.70
3406;DHT22;10008;48.682;9.016;2024-03-17T14:04:19;17.40;92.10
3406;DHT22;10008;48.682;9.016;2024-03-17T14:06:45;16.80;87.30
3406;DHT22;10008;48.682;9.016;2024-03-17T14:09:14;16.70;88.20
3406;DHT22;10008;48.682;9.016;2024-03-17T14:11:41;17.00;86.80
3406;DHT22;10008;48.682;9.016;2024-03-17T14:14:07;16.80;86.00
3406;DHT22;10008;48.682;9.016;2024-03-17T14:16:33;16.70;88.80
3406;DHT22;10008;48.682;9.016;2024-03-17T14:19:01;16.70;90.00
3406;DHT22;10008;48.682;9.016;2024-03-17T14:21:27;16.60;90.00
3406;DHT22;10008;48.682;9.016;2024-03-17T14:23:54;16.60;89.30
3406;DHT22;10008;48.682;9.016;2024-03-17T14:26:20;16.20;90.60
3406;DHT22;10008;48.682;9.016;2024-03-17T14:28:47;16.00;88.40
3406;DHT22;10008;48.682;9.016;2024-03-17T14:31:12;16.10;91.90
3406;DHT22;10008;48.682;9.016;2024-03-17T14:33:38;16.30;91.20
3406;DHT22;10008;48.682;9.016;2024-03-17T14:36:04;16.20;90.40
3406;DHT22;10008;48.682;9.016;2024-03-17T14:38:31;16.50;90.80
3406;DHT22;10008;48.682;9.016;2024-03-17T14:40:57;16.90;90.00
3406;DHT22;10008;48.682;9.016;2024-03-17T14:43:23;16.90;91.10
3406;DHT22;10008;48.682;9.016;2024-03-17T14:45:49;16.50;87.90
3406;DHT22;10008;48.682;9.016;2024-03-17T14:48:16;16.20;89.70
3406;DHT22;10008;48.682;9.016;2024-03-17T14:50:42;16.30;91.70
3406;DHT22;10008;48.682;9.016;2024-03-17T14:53:07;16.50;90.00
3406;DHT22;10008;48.682;9.016;2024-03-17T14:55:33;16.30;88.70
3406;DHT22;10008;48.682;9.016;2024-03-17T14:57:59;16.20;90.60
3406;DHT22;10008;48.682;9.016;2024-03-17T15:00:28;16.30;90.50
3406;DHT22;10008;48.682;9.016;2024-03-17T15:02:56;16.30;91.40
3406;DHT22;10008;48.682;9.016;2024-03-17T15:05:22;16.00;92.20
3406;DHT22;10008;48.682;9.016;2024-03-17T15:07:50;15.80;91.00
3406;DHT22;10008;48.682;9.016;2024-03-17T15:10:16;15.70;90.50
3406;DHT22;10008;48.682;9.016;2024-03-17T15:12:49;15.70;92.70
3406;DHT22;10008;48.682;9.016;2024-03-17T15:15:15;15.50;91.70
3406;DHT22;10008;48.682;9.016;2024-03-17T15:17:41;15.50;93.80
3406;DHT22;10008;48.682;9.016;2024-03-17T15:20:09;15.40;93.90
3406;DHT22;10008;48.682;9.016;2024-03-17T15:22:51;15.20;93.80
3406;DHT22;10008;48.682;9.016;2024-03-17T15:25:17;15.10;93.90
3406;DHT22;10008;48.682;9.016;2024-03-17T15:27:45;15.00;93.00
3406;DHT22;10008;48.682;9.016;2024-03-17T15:30:13;14.90;93.50
3406;DHT22;10008;48.682;9.016;2024-03-17T15:32:41;14.70;94.40
3406;DHT22;10008;48.682;9.016;2024-03-17T15:35:07;14.70;95.10
3406;DHT22;10008;48.682;9.016;2024-03-17T15:37:33;14.60;95.10
3406;DHT22;10008;48.682;9.016;2024-03-17T15:39:59;14.50;95.30
3406;DHT22;10008;48.682;9.016;2024-03-17T15:42:25;14.50;95.70
3406;DHT22;10008;48.682;9.016;2024-03-17T15:44:52;14.40;95.50
3406;DHT22;10008;48.682;9.016;2024-03-17T15:47:18;14.30;96.10
3406;DHT22;10008;48.682;9.016;2024-03-17T15:49:45;14.30;95.50
3406;DHT22;10008;48.682;9.016;2024-03-17T15:52:11;14.20;95.50
3406;DHT22;10008;48.682;9.016;2024-03-17T15:54:36;14.10;95.60
3406;DHT22;10008;48.682;9.016;2024-03-17T15:57:02;14.10;96.30
3406;DHT22;10008;48.682;9.016;2024-03-17T15:59:28;14.10;96.30
3406;DHT22;10008;48.682;9.016;2024-03-17T16:01:54;14.10;96.00
3406;DHT22;10008;48.682;9.016;2024-03-17T16:04:21;14.10;96.10
3406;DHT22;10008;48.682;9.016;2024-03-17T16:06:50;14.00;96.50
3406;DHT22;10008;48.682;9.016;2024-03-17T16:09:16;14.00;95.50
3406;DHT22;10008;48.682;9.016;2024-03-17T16:11:43;13.90;95.10
3406;DHT22;10008;48.682;9.016;2024-03-17T16:14:10;13.80;95.40
3406;DHT22;10008;48.682;9.016;2024-03-17T16:16:37;13.70;95.80
3406;DHT22;10008;48.682;9.016;2024-03-17T16:19:04;13.50;96.40
3406;DHT22;10008;48.682;9.016;2024-03-17T16:21:32;13.50;97.50
3406;DHT22;10008;48.682;9.016;2024-03-17T16:24:05;13.40;97.60